KMDH Weather | Aviation | SIU

Home
Southern Illinois University

CONTACT

SIU.EDU

Aviation - Weather

College of Applied Sciences and Arts

KMDH Weather

NOTICE: Although all weather products are taken from the National Weather Service, this data should be used only as a supplement to a formal weather briefing.

Last Updated: Wednesday, June 20th, 2018, 8:30 am
Information on this page is updated every 5 minutes.


METARS

KMDH 201252Z 25006KT 10SM CLR 26/20 A2993 RMK AO2 SLP128 T02560200

KMDH 201152Z AUTO 24003KT 10SM SCT070 24/19 A2992 RMK AO2 SLP128 T02390194 10250

KMDH 201052Z AUTO 23005KT 10SM CLR 22/19 A2992 RMK AO2 SLP128 T02220194

KMWA 201245Z 24006KT 10SM SCT150 26/20 A2993

KMWA 201156Z 23007KT 10SM SCT070 24/19 A2994

KMWA 201135Z AUTO 20003KT 10SM SCT070 24/20 A2994 RMK AO2 T02360196

KMWA 201115Z AUTO 00000KT 10SM CLR 23/20 A2994 RMK AO2 T02250198

KMWA 201055Z AUTO 00000KT 10SM CLR 22/20 A2994 RMK AO2 T02180195

KMWA 201035Z AUTO 00000KT 10SM CLR 22/20 A2993 RMK AO2 T02190199

KCGI 201253Z 23006KT 10SM CLR 26/19 A2993 RMK AO2 SLP130 T02610194

KCGI 201153Z 18003KT 10SM CLR 24/19 A2993 RMK AO2 SLP130 T02390194 10261 20222

KCGI 201053Z AUTO 18003KT 10SM CLR 23/19 A2993 RMK AO2 SLP131 T02280189

KSAR 201315Z AUTO 22004KT 10SM CLR 25/23 A2992 RMK AO2 T02520226

KSAR 201255Z AUTO 19004KT 10SM CLR 25/23 A2993 RMK AO2 T02500227

KSAR 201235Z AUTO 18005KT 10SM SCT080 25/23 A2993 RMK AO2 T02460229

KSAR 201215Z AUTO 21003KT 10SM CLR 24/23 A2993 RMK AO2 T02360227

KSAR 201155Z AUTO 21004KT 10SM CLR 23/23 A2993 RMK AO2 T02260226 10240 20221

KSAR 201135Z AUTO 00000KT 10SM CLR 23/23 A2993 RMK AO2 T02250225

KSAR 201115Z AUTO 00000KT 10SM SCT080 22/22 A2993 RMK AO2 T02210221

KSAR 201055Z AUTO 00000KT 10SM BKN080 22/22 A2994 RMK AO2 T02210221

KSAR 201035Z AUTO 00000KT 10SM CLR 22/22 A2994 RMK AO2 T02220222

KFAM 201256Z AUTO 19003KT 10SM CLR 24/21 A2994 RMK AO2 SLP130 T02440206

KFAM 201223Z AUTO 00000KT 10SM FEW001 23/21 A2995 RMK AO2

KFAM 201156Z AUTO 00000KT 10SM CLR 22/20 A2995 RMK AO2 SLP128 T02170200 10233

KFAM 201056Z AUTO 00000KT 10SM CLR 21/19 A2995 RMK AO2 SLP131 T02060194

KMVN 201256Z AUTO 22006KT 10SM CLR 26/22 A2991 RMK AO2 SLP124 T02610217

KMVN 201156Z AUTO 00000KT 10SM CLR 23/22 A2992 RMK AO2 SLP127 T02280217 10228

KMVN 201056Z AUTO 00000KT 10SM CLR 22/21 A2992 RMK AO2 SLP128 T02170206

KMVN 201044Z AUTO 25003KT 10SM FEW001 21/21 A2992 RMK AO2

KHSB 201315Z AUTO 24007KT 10SM CLR 26/22 A2993 RMK AO2 T02640215

KCIR 201315Z AUTO 22005KT 10SM CLR 25/21 A2994 RMK AO2 T02510207

KPAH 201253Z 24006KT 10SM CLR 26/21 A2994 RMK AO2 SLP132 T02610206

KPOF 201253Z AUTO 23005KT 10SM SCT080 25/22 A2994 RMK AO2 SLP133 T02500217

KFAM 201256Z AUTO 19003KT 10SM CLR 24/21 A2994 RMK AO2 SLP130 T02440206

KBLV 201256Z AUTO 22005KT 10SM FEW085 BKN100 OVC130 24/22 A2989 RMK AO2 DZB29E39

KSUS 201254Z VRB03KT 10SM -RA FEW014 BKN047 BKN095 24/22 A2990 RMK AO2 RAB34

KCPS 201253Z 26004KT 10SM SCT045 SCT075 BKN090 23/22 A2991 RMK AO2 RAB10E25

KSTL 201327Z 06003KT 3SM R30R/5500VP6000FT +RA BR SCT026 BKN035 BKN250 23/22

KTBN 201256Z AUTO 21004KT 10SM CLR 24/20 A2993 RMK AO2 VIS 2 3/4 RWY32 SLP128

KVIH 201253Z AUTO 19008KT 10SM CLR 23/21 A2994 RMK AO2 SLP127 T02330206

KENL 201315Z AUTO 23003KT 10SM SCT120 25/23 A2990 RMK AO2 T02500230

KMTO 201320Z AUTO 00000KT 10SM BKN009 BKN070 OVC090 23/22 A2989 RMK AO2 RAE1254

KFWC 201315Z AUTO 21004KT 10SM CLR 25/23 A2990 RMK AO1 T02510228

KCUL 201314Z AUTO 25008KT 10SM CLR 27/22 A2991 RMK AO2

KEVV 201254Z 24009KT 10SM CLR 26/21 A2992 RMK AO2 SLP127 T02610211

KOWB 201256Z 21007KT 10SM SCT060 26/21 A2994 RMK AO2 SLP141 T02610211

KEHR 201256Z AUTO 24009KT 10SM FEW060 26/21 A2993 RMK AO2 SLP139 T02610206

KCEY 201315Z AUTO 25005KT 10SM FEW110 27/22 A2996 RMK AO1

KHOP 201256Z AUTO 26008KT 10SM CLR 26/20 A2996 RMK AO2 SLP141 T02570202

KMKL 201253Z 20004KT 10SM FEW045 BKN060 OVC070 24/22 A2999 RMK AO2 SLP151

KDYR 201256Z AUTO 19004KT 10SM FEW070 OVC090 24/21 A2998 RMK AO2 SLP161

KBYH 201250Z 21009KT 10SM FEW075 BKN095 OVC150 25/21 A2996

KARG 201256Z AUTO 17005KT 24/22 A2995 RMK AO2 SLP141 P0001 T02440222 PWINO RVRNO

KJBR 201253Z AUTO 18003KT 7SM -RA BKN065 OVC080 24/23 A2996 RMK AO2 RAB17E26B43

KUNO 201253Z AUTO 21003KT 10SM OVC090 23/20 A2997 RMK AO2 SLP134 T02330200 $

KALN 201246Z 24006KT 10SM VCSH SCT037 BKN060 BKN090 22/22 A2991

KALN 201246Z 24006KT 10SM VCSH SCT037 BKN060 BKN090 22/22 A2991

KCOU 201254Z 17007KT 10SM SCT050 BKN070 24/21 A2990 RMK AO2 SLP117 T02390211

KSPI 201314Z 21005KT 10SM FEW008 25/23 A2988 RMK AO2 T02500228

KAJG 201315Z AUTO 27003KT 10SM SCT110 25/22 A2990 RMK AO2 T02450224

KM30 201315Z AUTO 24008KT 10SM CLR 27/21 A2995 RMK AO2 T02660211

KDEC 201254Z 24007KT 10SM FEW009 24/21 A2990 RMK AO2 SLP118 T02390211

KIJX 201315Z AUTO 24007KT 10SM CLR 24/22 A2988 RMK AO2 T02400220


TAFS

KEVV 201126Z 2012/2112 23006KT P6SM FEW045 SCT250

        FM201400 26008KT P6SM FEW040 SCT250

        FM201700 27009KT P6SM VCTS SCT040CB BKN200

        FM202300 24006KT P6SM VCTS SCT035CB BKN200

        FM210600 VRB04KT P6SM SCT050 BKN200

KCGI 201126Z 2012/2112 23006KT P6SM FEW050 SCT200

        FM201500 26007KT P6SM FEW040 SCT250

        FM201800 24008KT P6SM VCTS SCT040CB BKN150

        FM210600 21006KT P6SM BKN040 OVC090

        FM211100 21006KT P6SM OVC020

KPAH 201126Z 2012/2112 23007KT P6SM FEW050 SCT200

        FM201800 25009KT P6SM VCTS SCT035CB BKN200

        FM210400 22006KT P6SM VCTS BKN050CB OVC200

        FM210800 22006KT P6SM OVC060

        FM211000 22006KT P6SM OVC025

KSPI 201146Z 2012/2112 VRB03KT 4SM BR VCSH SCT002 BKN100

        FM201400 26006KT P6SM VCSH BKN050

        FM201700 24006KT P6SM -SHRA VCTS BKN050CB

        FM210200 VRB04KT P6SM VCSH OVC040

KSTL 201314Z 2013/2118 23005KT P6SM -SHRA VCTS BKN050CB

        TEMPO 2013/2014 1SM SHRA BKN040

        FM201600 26007KT P6SM BKN110

        FM202200 21006KT 5SM -SHRA VCTS BKN040CB

        FM210500 20006KT 6SM BR SCT020 BKN050

        FM211400 20006KT P6SM OVC090

KDEC 201146Z 2012/2112 VRB05KT P6SM SCT004 BKN100

        FM201400 26006KT P6SM VCSH BKN050

        FM201700 24006KT P6SM -SHRA VCTS BKN050CB

        FM210200 VRB04KT P6SM VCSH OVC040

KOWB 201126Z 2012/2112 23007KT P6SM SCT045 BKN200

        FM201500 26009KT P6SM SCT040 BKN250

        FM201700 26009KT P6SM VCTS SCT035CB BKN200

        FM210200 22005KT P6SM VCTS SCT040CB BKN250

        FM210600 22005KT P6SM SCT050 BKN200

KSUS 201122Z 2012/2112 23005KT P6SM -SHRA VCTS BKN050CB

        TEMPO 2012/2014 4SM -SHRA BKN030

        FM201500 26007KT P6SM BKN110

        FM202200 21006KT 5SM -SHRA VCTS BKN040CB

        FM210500 20006KT 6SM BR SCT020 BKN050

TAF AMD KBLV 201155Z 2011/2114 23009KT 9999 BKN050 QNH2986INS

        TEMPO 2013/2015 23012G18KT 6000 -TSRA OVC050CB

        BECMG 2014/2015 26009KT 8000 -SHRA BKN030 QNH2975INS

        TEMPO 2019/2101 25020G30KT 4800 -TSRA BKN010CB OVC050

        BECMG 2102/2103 20009KT 9000 -SHRA BKN030 QNH2978INS

        BECMG 2105/2106 20009KT 9999 NSW BKN025 QNH2976INS TX33/2021Z TN22/2108Z


Winds Aloft



Pilot Reports

No pilot reports found for area.



Area Forecast



Significant Weather

No significant weather available.